createdAt,value
2018-05-27T00:00:06.467Z,60.65
2018-05-27T00:01:06.448Z,60.65
2018-05-27T00:02:07.431Z,60.36
2018-05-27T00:03:06.406Z,60.62
2018-05-27T00:04:06.411Z,60.72
2018-05-27T00:05:06.362Z,61.19
2018-05-27T00:06:06.388Z,61.13
2018-05-27T00:07:06.328Z,60.91
2018-05-27T00:08:07.305Z,60.62
2018-05-27T00:09:06.291Z,61.29
2018-05-27T00:10:06.314Z,61.39
2018-05-27T00:11:06.243Z,61.39
2018-05-27T00:12:06.231Z,61.19
2018-05-27T00:13:06.216Z,61.49
2018-05-27T00:14:06.204Z,61.58
2018-05-27T00:15:06.174Z,61.58
2018-05-27T00:16:06.152Z,62.35
2018-05-27T00:17:06.124Z,61.97
2018-05-27T00:18:06.111Z,62.26
2018-05-27T00:19:06.100Z,62.45
2018-05-27T00:20:06.082Z,62.45
2018-05-27T00:21:06.040Z,62.74
2018-05-27T00:22:06.048Z,62.74
2018-05-27T00:23:06.032Z,62.45
2018-05-27T00:24:05.997Z,62.64
2018-05-27T00:25:05.966Z,62.45
2018-05-27T00:26:05.951Z,62.64
2018-05-27T00:27:05.921Z,62.74
2018-05-27T00:28:05.928Z,63.02
2018-05-27T00:29:05.871Z,62.93
2018-05-27T00:30:05.887Z,62.93
2018-05-27T00:31:05.843Z,63.31
2018-05-27T00:32:05.828Z,63.12
2018-05-27T00:33:05.821Z,63.12
2018-05-27T00:34:05.806Z,63.31
2018-05-27T00:35:05.767Z,63.31
2018-05-27T00:36:05.764Z,63.31
2018-05-27T00:37:05.745Z,63.51
2018-05-27T00:38:05.717Z,63.89
2018-05-27T00:39:05.699Z,63.89
2018-05-27T00:40:05.688Z,63.70
2018-05-27T00:41:05.667Z,63.89
2018-05-27T00:42:05.652Z,64.28
2018-05-27T00:43:05.623Z,64.18
2018-05-27T00:44:05.609Z,64.08
2018-05-27T00:45:05.604Z,64.82
2018-05-27T00:46:05.555Z,64.43
2018-05-27T00:47:05.532Z,64.73
2018-05-27T00:48:05.522Z,64.43
2018-05-27T00:49:05.502Z,64.53
2018-05-27T00:50:05.485Z,64.73
2018-05-27T00:51:05.448Z,64.92
2018-05-27T00:52:05.455Z,64.82
2018-05-27T00:53:05.421Z,64.53
2018-05-27T00:54:05.398Z,64.92
2018-05-27T00:55:05.389Z,64.92
2018-05-27T00:56:05.366Z,65.01
2018-05-27T00:57:05.336Z,65.30
2018-05-27T00:58:05.330Z,65.01
2018-05-27T00:59:05.311Z,65.30
2018-05-27T01:00:05.269Z,65.40
2018-05-27T01:01:05.263Z,65.20
2018-05-27T01:02:05.306Z,65.40
2018-05-27T01:03:05.250Z,65.30
2018-05-27T01:04:05.193Z,65.20
2018-05-27T01:05:05.180Z,65.40
2018-05-27T01:06:05.169Z,65.50
2018-05-27T01:07:05.139Z,65.50
2018-05-27T01:08:05.130Z,65.78
2018-05-27T01:09:05.092Z,65.78
2018-05-27T01:10:05.081Z,65.78
2018-05-27T01:11:05.055Z,65.97
2018-05-27T01:12:05.053Z,65.78
2018-05-27T01:13:05.018Z,66.07
2018-05-27T01:14:04.997Z,66.27
2018-05-27T01:15:04.981Z,66.36
2018-05-27T01:16:04.999Z,66.27
2018-05-27T01:17:04.941Z,65.88
2018-05-27T01:18:04.929Z,66.46
2018-05-27T01:19:04.889Z,66.65
2018-05-27T01:20:04.885Z,66.84
2018-05-27T01:21:04.867Z,66.84
2018-05-27T01:22:04.847Z,66.46
2018-05-27T01:23:04.813Z,66.91
2018-05-27T01:24:05.802Z,66.91
2018-05-27T01:25:04.775Z,66.81
2018-05-27T01:26:04.781Z,66.36
2018-05-27T01:27:04.733Z,66.33
2018-05-27T01:28:05.730Z,66.81
2018-05-27T01:29:04.710Z,66.81
2018-05-27T01:30:04.681Z,66.42
2018-05-27T01:31:04.651Z,66.61
2018-05-27T01:32:04.643Z,67.10
2018-05-27T01:33:04.621Z,67.10
2018-05-27T01:34:04.614Z,67.38
2018-05-27T01:35:04.602Z,66.91
2018-05-27T01:36:04.587Z,67.00
2018-05-27T01:37:04.532Z,67.19
2018-05-27T01:38:04.511Z,67.38
2018-05-27T01:39:04.508Z,67.68
2018-05-27T01:40:04.535Z,67.96
2018-05-27T01:41:04.456Z,67.96
2018-05-27T01:42:04.453Z,68.25
2018-05-27T01:43:04.411Z,68.25
2018-05-27T01:44:04.394Z,68.15
2018-05-27T01:45:04.376Z,68.73
2018-05-27T01:46:04.382Z,68.63
2018-05-27T01:47:04.335Z,68.63
2018-05-27T01:48:04.328Z,68.63
2018-05-27T01:49:04.306Z,68.98
2018-05-27T01:50:04.292Z,68.70
2018-05-27T01:51:04.246Z,69.08
2018-05-27T01:52:04.241Z,68.70
2018-05-27T01:53:04.214Z,68.89
2018-05-27T01:54:04.218Z,69.37
2018-05-27T01:55:04.178Z,68.89
2018-05-27T01:56:05.173Z,69.37
2018-05-27T01:57:04.138Z,69.46
2018-05-27T01:58:04.144Z,69.27
2018-05-27T01:59:04.082Z,69.27
2018-05-27T02:00:04.101Z,69.46
2018-05-27T02:01:04.066Z,69.46
2018-05-27T02:02:04.038Z,69.46
2018-05-27T02:03:04.020Z,69.95
2018-05-27T02:04:04.003Z,69.46
2018-05-27T02:05:03.988Z,69.27
2018-05-27T02:06:04.033Z,69.37
2018-05-27T02:07:03.960Z,69.75
2018-05-27T02:08:03.928Z,69.75
2018-05-27T02:09:03.892Z,69.95
2018-05-27T02:10:03.886Z,69.85
2018-05-27T02:11:03.860Z,69.95
2018-05-27T02:12:03.934Z,70.14
2018-05-27T02:13:03.817Z,70.43
2018-05-27T02:14:03.789Z,70.33
2018-05-27T02:15:03.770Z,70.14
2018-05-27T02:16:03.764Z,70.29
2018-05-27T02:17:03.728Z,70.81
2018-05-27T02:18:03.733Z,70.43
2018-05-27T02:19:03.696Z,70.78
2018-05-27T02:20:03.698Z,70.87
2018-05-27T02:21:03.653Z,70.90
2018-05-27T02:22:03.624Z,71.06
2018-05-27T02:23:03.600Z,70.90
2018-05-27T02:24:03.591Z,71.25
2018-05-27T02:25:03.577Z,71.06
2018-05-27T02:26:03.543Z,71.25
2018-05-27T02:27:03.523Z,71.64
2018-05-27T02:28:03.529Z,71.45
2018-05-27T02:29:03.472Z,71.55
2018-05-27T02:30:03.471Z,71.25
2018-05-27T02:31:03.450Z,71.35
2018-05-27T02:32:03.438Z,71.35
2018-05-27T02:33:03.411Z,71.25
2018-05-27T02:34:03.399Z,71.93
2018-05-27T02:35:03.455Z,71.73
2018-05-27T02:36:03.371Z,71.73
2018-05-27T02:37:03.319Z,71.73
2018-05-27T02:38:03.313Z,71.83
2018-05-27T02:39:03.305Z,71.93
2018-05-27T02:40:03.288Z,72.41
2018-05-27T02:41:03.339Z,72.50
2018-05-27T02:42:03.850Z,72.31
2018-05-27T02:43:03.208Z,72.60
2018-05-27T02:44:03.203Z,72.22
2018-05-27T02:45:03.171Z,72.31
2018-05-27T02:46:03.166Z,72.31
2018-05-27T02:47:03.118Z,72.31
2018-05-27T02:48:03.103Z,72.50
2018-05-27T02:49:03.076Z,72.69
2018-05-27T02:50:04.080Z,72.37
2018-05-27T02:51:03.041Z,72.66
2018-05-27T02:52:03.045Z,72.66
2018-05-27T02:53:03.004Z,72.95
2018-05-27T02:54:03.013Z,72.79
2018-05-27T02:55:02.966Z,73.04
2018-05-27T02:56:02.946Z,72.89
2018-05-27T02:57:02.933Z,72.95
2018-05-27T02:58:02.912Z,72.89
2018-05-27T02:59:02.864Z,73.33
2018-05-27T03:00:02.846Z,73.52
2018-05-27T03:01:02.841Z,73.72
2018-05-27T03:02:02.831Z,73.62
2018-05-27T03:03:02.788Z,73.33
2018-05-27T03:04:02.777Z,73.43
2018-05-27T03:05:02.748Z,73.33
2018-05-27T03:06:02.752Z,73.72
2018-05-27T03:07:02.701Z,73.81
2018-05-27T03:08:02.694Z,73.81
2018-05-27T03:09:02.667Z,74.10
2018-05-27T03:10:02.682Z,74.01
2018-05-27T03:11:02.629Z,73.91
2018-05-27T03:12:02.610Z,74.19
2018-05-27T03:13:02.599Z,74.29
2018-05-27T03:14:02.570Z,74.39
2018-05-27T03:15:02.531Z,74.19
2018-05-27T03:16:02.535Z,74.19
2018-05-27T03:17:02.516Z,74.10
2018-05-27T03:18:02.496Z,74.58
2018-05-27T03:19:02.463Z,74.68
2018-05-27T03:20:02.437Z,74.77
2018-05-27T03:21:02.423Z,74.68
2018-05-27T03:22:02.422Z,75.06
2018-05-27T03:23:02.372Z,74.77
2018-05-27T03:24:02.366Z,75.25
2018-05-27T03:25:02.339Z,75.12
2018-05-27T03:26:02.311Z,75.50
2018-05-27T03:27:02.300Z,75.40
2018-05-27T03:28:02.298Z,75.50
2018-05-27T03:29:02.248Z,75.21
2018-05-27T03:30:02.234Z,75.02
2018-05-27T03:31:02.211Z,75.31
2018-05-27T03:32:02.207Z,75.50
2018-05-27T03:33:02.193Z,75.40
2018-05-27T03:34:02.168Z,75.70
2018-05-27T03:35:02.138Z,75.70
2018-05-27T03:36:03.136Z,75.40
2018-05-27T03:37:02.107Z,75.40
2018-05-27T03:38:02.096Z,75.50
2018-05-27T03:39:02.077Z,75.31
2018-05-27T03:40:02.108Z,75.70
2018-05-27T03:41:02.016Z,75.50
2018-05-27T03:42:02.021Z,75.50
2018-05-27T03:43:01.985Z,75.31
2018-05-27T03:44:02.034Z,75.50
2018-05-27T03:45:01.920Z,75.31
2018-05-27T03:46:01.941Z,75.21
2018-05-27T03:47:01.878Z,75.70
2018-05-27T03:48:01.980Z,75.12
2018-05-27T03:49:01.848Z,75.70
2018-05-27T03:50:01.868Z,75.79
2018-05-27T03:51:01.824Z,75.89
2018-05-27T03:52:01.871Z,76.07
2018-05-27T03:53:01.769Z,76.17
2018-05-27T03:54:01.790Z,75.89
2018-05-27T03:55:01.736Z,75.98
2018-05-27T03:56:01.811Z,75.70
2018-05-27T03:57:01.678Z,75.89
2018-05-27T03:58:01.699Z,75.70
2018-05-27T03:59:01.646Z,76.17
2018-05-27T04:00:01.727Z,75.70
2018-05-27T04:01:01.597Z,75.50
2018-05-27T04:02:01.642Z,75.40
2018-05-27T04:03:01.571Z,75.40
2018-05-27T04:04:01.634Z,75.60
2018-05-27T04:05:01.515Z,75.40
2018-05-27T04:06:01.552Z,75.40
2018-05-27T04:07:01.494Z,75.70
2018-05-27T04:08:01.465Z,75.12
2018-05-27T04:09:01.438Z,75.35
2018-05-27T04:10:01.483Z,75.40
2018-05-27T04:11:01.388Z,75.02
2018-05-27T04:12:01.385Z,75.54
2018-05-27T04:13:01.365Z,75.35
2018-05-27T04:14:01.419Z,75.73
2018-05-27T04:15:01.300Z,75.63
2018-05-27T04:16:01.324Z,75.35
2018-05-27T04:17:01.282Z,75.54
2018-05-27T04:18:01.317Z,75.73
2018-05-27T04:19:01.217Z,75.63
2018-05-27T04:20:01.256Z,75.06
2018-05-27T04:21:01.203Z,75.35
2018-05-27T04:22:01.249Z,75.73
2018-05-27T04:23:01.135Z,75.45
2018-05-27T04:24:01.249Z,75.54
2018-05-27T04:25:01.117Z,75.54
2018-05-27T04:26:01.169Z,75.63
2018-05-27T04:27:01.068Z,75.45
2018-05-27T04:28:01.107Z,75.45
2018-05-27T04:29:01.023Z,75.25
2018-05-27T04:30:01.098Z,75.35
2018-05-27T04:31:00.982Z,75.45
2018-05-27T04:32:01.020Z,75.25
2018-05-27T04:33:00.950Z,75.06
2018-05-27T04:34:01.955Z,75.15
2018-05-27T04:35:00.890Z,75.25
2018-05-27T04:36:00.924Z,75.45
2018-05-27T04:37:00.854Z,75.15
2018-05-27T04:38:00.942Z,74.87
2018-05-27T04:39:00.815Z,75.06
2018-05-27T04:40:00.848Z,74.87
2018-05-27T04:41:00.773Z,74.87
2018-05-27T04:42:00.766Z,74.96
2018-05-27T04:43:00.717Z,74.96
2018-05-27T04:44:00.782Z,75.06
2018-05-27T04:45:00.696Z,74.90
2018-05-27T04:46:00.685Z,75.29
2018-05-27T04:47:00.643Z,74.52
2018-05-27T04:48:00.695Z,74.62
2018-05-27T04:49:00.594Z,74.04
2018-05-27T04:50:00.615Z,74.33
2018-05-27T04:51:00.558Z,73.94
2018-05-27T04:52:00.631Z,73.75
2018-05-27T04:53:00.516Z,73.94
2018-05-27T04:54:00.528Z,73.56
2018-05-27T04:55:00.463Z,73.69
2018-05-27T04:56:00.569Z,73.66
2018-05-27T04:57:00.427Z,73.69
2018-05-27T04:58:00.455Z,73.31
2018-05-27T04:59:00.411Z,73.50
2018-05-27T05:00:00.467Z,73.41
2018-05-27T05:01:00.350Z,73.11
2018-05-27T05:02:00.374Z,73.02
2018-05-27T05:03:00.295Z,72.92
2018-05-27T05:04:00.406Z,72.73
2018-05-27T05:05:00.266Z,72.54
2018-05-27T05:06:00.309Z,72.34
2018-05-27T05:07:00.238Z,72.29
2018-05-27T05:08:00.227Z,71.91
2018-05-27T05:09:00.170Z,71.91
2018-05-27T05:10:00.220Z,72.19
2018-05-27T05:11:00.160Z,72.00
2018-05-27T05:12:00.133Z,71.23
2018-05-27T05:13:00.111Z,71.71
2018-05-27T05:14:00.168Z,71.91
2018-05-27T05:15:00.134Z,72.29
2018-05-27T05:16:00.070Z,71.33
2018-05-27T05:17:00.011Z,71.91
2018-05-27T05:18:00.071Z,71.71
2018-05-27T05:18:59.968Z,71.17
2018-05-27T05:19:59.987Z,71.17
2018-05-27T05:20:59.924Z,71.26
2018-05-27T05:22:00.019Z,71.08
2018-05-27T05:22:59.893Z,70.59
2018-05-27T05:23:59.878Z,70.68
2018-05-27T05:24:59.836Z,70.50
2018-05-27T05:25:59.850Z,70.40
2018-05-27T05:26:59.815Z,70.11
2018-05-27T05:28:00.869Z,70.68
2018-05-27T05:28:59.771Z,70.21
2018-05-27T05:29:59.852Z,70.11
2018-05-27T05:30:59.718Z,69.63
2018-05-27T05:31:59.759Z,70.01
2018-05-27T05:32:59.665Z,70.68
2018-05-27T05:33:59.676Z,70.21
2018-05-27T05:34:59.631Z,70.50
2018-05-27T05:35:59.696Z,70.30
2018-05-27T05:36:59.585Z,70.01
2018-05-27T05:37:59.597Z,70.30
2018-05-27T05:38:59.545Z,70.59
2018-05-27T05:39:59.599Z,70.78
2018-05-27T05:40:59.510Z,70.98
2018-05-27T05:41:59.510Z,70.50
2018-05-27T05:42:59.499Z,70.30
2018-05-27T05:44:04.449Z,70.30
2018-05-27T05:44:59.432Z,70.40
2018-05-27T05:46:00.468Z,70.50
2018-05-27T05:46:59.392Z,70.40
2018-05-27T05:47:59.456Z,70.30
2018-05-27T05:48:59.345Z,70.21
2018-05-27T05:49:59.372Z,70.34
2018-05-27T05:50:59.296Z,70.24
2018-05-27T05:52:00.300Z,71.30
2018-05-27T05:52:59.256Z,70.05
2018-05-27T05:53:59.318Z,69.85
2018-05-27T05:54:59.213Z,69.85
2018-05-27T05:56:01.246Z,69.57
2018-05-27T05:56:59.175Z,68.90
2018-05-27T05:57:59.215Z,69.67
2018-05-27T05:58:59.125Z,69.47
2018-05-27T05:59:59.118Z,69.95
2018-05-27T06:00:59.086Z,69.67
2018-05-27T06:02:00.160Z,70.09
2018-05-27T06:02:59.064Z,69.99
2018-05-27T06:03:59.042Z,68.54
2018-05-27T06:04:59.006Z,68.54
2018-05-27T06:06:00.105Z,68.54
2018-05-27T06:06:58.989Z,68.06
2018-05-27T06:07:58.964Z,68.16
2018-05-27T06:08:58.924Z,68.35
2018-05-27T06:09:59.008Z,68.16
2018-05-27T06:10:58.878Z,68.74
2018-05-27T06:12:03.527Z,67.97
2018-05-27T06:12:58.834Z,68.06
2018-05-27T06:13:58.920Z,68.26
2018-05-27T06:14:58.799Z,69.22
2018-05-27T06:16:00.816Z,68.29
2018-05-27T06:16:58.771Z,68.48
2018-05-27T06:17:59.748Z,67.90
2018-05-27T06:18:58.712Z,68.19
2018-05-27T06:19:58.738Z,68.29
2018-05-27T06:20:58.701Z,68.29
2018-05-27T06:22:03.469Z,67.03
2018-05-27T06:22:58.632Z,67.33
2018-05-27T06:23:58.652Z,68.19
2018-05-27T06:24:58.568Z,67.61
2018-05-27T06:25:58.569Z,67.33
2018-05-27T06:26:58.563Z,67.03
2018-05-27T06:27:59.671Z,67.81
2018-05-27T06:28:58.495Z,66.85
2018-05-27T06:30:00.601Z,66.85
2018-05-27T06:30:58.504Z,66.55
2018-05-27T06:31:58.549Z,66.59
2018-05-27T06:32:58.434Z,65.81
2018-05-27T06:33:59.452Z,66.11
2018-05-27T06:34:58.380Z,66.97
2018-05-27T06:35:58.478Z,64.86
2018-05-27T06:36:58.349Z,64.98
2018-05-27T06:37:59.362Z,64.95
2018-05-27T06:38:58.287Z,64.59
2018-05-27T06:39:59.289Z,64.79
2018-05-27T06:40:58.248Z,63.92
2018-05-27T06:41:58.269Z,64.21
2018-05-27T06:42:58.219Z,64.56
2018-05-27T06:43:58.299Z,64.86
2018-05-27T06:44:58.159Z,64.76
2018-05-27T06:46:00.235Z,64.76
2018-05-27T06:46:58.104Z,65.14
2018-05-27T06:47:58.112Z,65.91
2018-05-27T06:48:58.098Z,65.24
2018-05-27T06:49:58.184Z,65.24
2018-05-27T06:50:58.042Z,65.24
2018-05-27T06:51:58.049Z,65.43
2018-05-27T06:52:57.987Z,65.33
2018-05-27T06:53:59.063Z,64.95
2018-05-27T06:54:57.932Z,64.98
2018-05-27T06:55:57.950Z,65.27
2018-05-27T06:56:57.963Z,65.43
2018-05-27T06:57:59.007Z,65.37
2018-05-27T06:58:57.863Z,65.47
2018-05-27T06:59:57.898Z,65.66
2018-05-27T07:00:57.820Z,65.27
2018-05-27T07:01:57.909Z,65.17
2018-05-27T07:02:57.793Z,64.59
2018-05-27T07:03:57.815Z,65.17
2018-05-27T07:04:57.762Z,65.27
2018-05-27T07:05:58.736Z,66.17
2018-05-27T07:06:57.700Z,64.82
2018-05-27T07:07:58.737Z,64.34
2018-05-27T07:08:57.672Z,63.95
2018-05-27T07:09:57.728Z,64.15
2018-05-27T07:10:57.595Z,64.43
2018-05-27T07:11:57.662Z,63.67
2018-05-27T07:12:57.630Z,63.95
2018-05-27T07:13:57.704Z,63.85
2018-05-27T07:14:57.524Z,63.37
2018-05-27T07:15:57.562Z,63.47
2018-05-27T07:16:57.459Z,64.05
2018-05-27T07:17:57.495Z,63.28
2018-05-27T07:18:57.453Z,63.40
2018-05-27T07:19:57.513Z,63.57
2018-05-27T07:20:57.396Z,63.89
2018-05-27T07:21:57.421Z,64.18
2018-05-27T07:22:57.440Z,63.70
2018-05-27T07:23:57.441Z,63.70
2018-05-27T07:24:57.342Z,63.98
2018-05-27T07:25:57.331Z,64.18
2018-05-27T07:26:57.284Z,62.92
2018-05-27T07:27:57.492Z,63.21
2018-05-27T07:28:57.218Z,63.50
2018-05-27T07:29:59.284Z,64.37
2018-05-27T07:30:57.178Z,62.92
2018-05-27T07:31:59.271Z,62.63
2018-05-27T07:32:57.168Z,62.92
2018-05-27T07:33:57.170Z,63.12
2018-05-27T07:34:57.108Z,62.82
2018-05-27T07:35:58.135Z,63.12
2018-05-27T07:36:57.063Z,62.92
2018-05-27T07:37:57.104Z,62.63
2018-05-27T07:38:57.026Z,62.44
2018-05-27T07:39:57.130Z,62.73
2018-05-27T07:40:56.972Z,63.12
2018-05-27T07:41:57.042Z,62.92
2018-05-27T07:42:56.947Z,62.34
2018-05-27T07:43:56.953Z,62.47
2018-05-27T07:44:56.896Z,61.99
2018-05-27T07:45:56.977Z,60.93
2018-05-27T07:46:56.837Z,61.22
2018-05-27T07:47:56.856Z,61.70
2018-05-27T07:48:56.821Z,61.60
2018-05-27T07:49:56.896Z,61.70
2018-05-27T07:50:56.765Z,61.63
2018-05-27T07:51:56.776Z,61.44
2018-05-27T07:52:56.719Z,61.92
2018-05-27T07:53:56.850Z,60.38
2018-05-27T07:54:56.678Z,60.38
2018-05-27T07:55:56.802Z,60.09
2018-05-27T07:56:56.642Z,59.31
2018-05-27T07:57:57.677Z,59.12
2018-05-27T07:58:56.586Z,59.51
2018-05-27T07:59:56.645Z,59.51
2018-05-27T08:00:56.555Z,59.99
2018-05-27T08:01:56.647Z,59.89
2018-05-27T08:02:56.497Z,59.51
2018-05-27T08:03:56.637Z,59.51
2018-05-27T08:04:56.475Z,59.31
2018-05-27T08:05:56.459Z,58.86
2018-05-27T08:06:56.430Z,57.89
2018-05-27T08:07:56.565Z,58.47
2018-05-27T08:08:56.374Z,57.89
2018-05-27T08:09:56.390Z,58.09
2018-05-27T08:10:56.342Z,58.18
2018-05-27T08:11:56.402Z,58.37
2018-05-27T08:12:56.325Z,58.76
2018-05-27T08:13:56.304Z,58.18
2018-05-27T08:14:56.322Z,58.18
2018-05-27T08:15:56.341Z,57.99
2018-05-27T08:16:56.210Z,57.60
2018-05-27T08:17:56.246Z,58.09
2018-05-27T08:18:56.159Z,58.57
2018-05-27T08:19:56.279Z,57.51
2018-05-27T08:20:56.117Z,57.63
2018-05-27T08:21:56.185Z,57.44
2018-05-27T08:22:56.096Z,57.24
2018-05-27T08:23:56.174Z,57.24
2018-05-27T08:24:56.041Z,57.82
2018-05-27T08:25:57.127Z,58.21
2018-05-27T08:26:55.984Z,57.92
2018-05-27T08:27:55.990Z,58.02
2018-05-27T08:28:55.945Z,58.14
2018-05-27T08:29:56.015Z,57.15
2018-05-27T08:30:55.914Z,55.89
2018-05-27T08:31:55.928Z,55.60
2018-05-27T08:32:55.888Z,55.73
2018-05-27T08:33:55.949Z,55.82
2018-05-27T08:34:55.848Z,56.30
2018-05-27T08:35:56.874Z,55.15
2018-05-27T08:36:55.778Z,55.17
2018-05-27T08:37:55.849Z,55.17
2018-05-27T08:38:55.748Z,55.94
2018-05-27T08:39:55.767Z,55.27
2018-05-27T08:40:55.752Z,55.94
2018-05-27T08:41:56.835Z,55.56
2018-05-27T08:42:55.681Z,56.14
2018-05-27T08:43:55.683Z,54.98
2018-05-27T08:44:55.622Z,55.10
2018-05-27T08:45:55.696Z,55.85
2018-05-27T08:46:55.586Z,55.68
2018-05-27T08:47:55.606Z,54.62
2018-05-27T08:48:55.547Z,54.71
2018-05-27T08:50:00.554Z,54.81
2018-05-27T08:50:55.485Z,54.03
2018-05-27T08:51:55.548Z,53.45
2018-05-27T08:52:55.461Z,54.01
2018-05-27T08:53:56.457Z,54.33
2018-05-27T08:54:55.400Z,54.71
2018-05-27T08:55:57.502Z,54.33
2018-05-27T08:56:55.376Z,53.75
2018-05-27T08:57:55.466Z,54.43
2018-05-27T08:58:55.337Z,54.33
2018-05-27T08:59:56.313Z,53.85
2018-05-27T09:00:55.294Z,53.17
2018-05-27T09:01:57.334Z,53.65
2018-05-27T09:02:55.279Z,53.75
2018-05-27T09:03:55.340Z,54.16
2018-05-27T09:04:55.229Z,54.23
2018-05-27T09:05:55.198Z,55.20
2018-05-27T09:06:55.169Z,55.22
2018-05-27T09:07:56.262Z,53.58
2018-05-27T09:08:55.159Z,52.90
2018-05-27T09:09:55.135Z,53.49
2018-05-27T09:10:55.113Z,52.51
2018-05-27T09:12:00.982Z,52.32
2018-05-27T09:12:55.050Z,52.80
2018-05-27T09:13:55.107Z,53.00
2018-05-27T09:14:55.014Z,52.90
2018-05-27T09:15:55.121Z,52.80
2018-05-27T09:16:54.973Z,52.32
2018-05-27T09:17:54.979Z,53.09
2018-05-27T09:18:54.941Z,53.29
2018-05-27T09:19:55.014Z,53.97
2018-05-27T09:20:54.914Z,53.77
2018-05-27T09:21:56.967Z,54.19
2018-05-27T09:22:54.851Z,54.28
2018-05-27T09:23:55.831Z,53.70
2018-05-27T09:24:54.864Z,54.28
2018-05-27T09:25:56.895Z,54.28
2018-05-27T09:26:54.825Z,53.31
2018-05-27T09:27:54.843Z,53.31
2018-05-27T09:28:54.709Z,52.32
2018-05-27T09:29:56.817Z,53.19
2018-05-27T09:30:54.729Z,53.22
2018-05-27T09:32:00.492Z,54.58
2018-05-27T09:32:54.633Z,55.93
2018-05-27T09:33:55.703Z,54.28
2018-05-27T09:34:54.600Z,53.31
2018-05-27T09:35:54.691Z,52.95
2018-05-27T09:36:54.567Z,52.95
2018-05-27T09:37:54.602Z,53.34
2018-05-27T09:38:54.528Z,53.34
2018-05-27T09:40:05.576Z,53.53
2018-05-27T09:40:54.482Z,53.53
2018-05-27T09:41:56.561Z,52.37
2018-05-27T09:42:54.442Z,51.69
2018-05-27T09:43:55.447Z,53.15
2018-05-27T09:44:54.404Z,53.34
2018-05-27T09:45:55.835Z,53.34
2018-05-27T09:46:54.403Z,52.78
2018-05-27T09:47:59.073Z,53.66
2018-05-27T09:48:54.315Z,52.88
2018-05-27T09:49:54.400Z,51.91
2018-05-27T09:50:54.293Z,51.65
2018-05-27T09:51:54.271Z,50.09
2018-05-27T09:52:54.271Z,49.02
2018-05-27T09:53:59.023Z,47.86
2018-05-27T09:54:54.188Z,47.57
2018-05-27T09:55:54.198Z,47.47
2018-05-27T09:56:54.167Z,48.64
2018-05-27T09:57:54.267Z,48.93
2018-05-27T09:58:54.147Z,48.42
2018-05-27T09:59:56.312Z,49.29
2018-05-27T10:00:54.114Z,49.68
2018-05-27T10:01:55.185Z,49.71
2018-05-27T10:02:54.056Z,49.41
2018-05-27T10:03:54.066Z,50.38
2018-05-27T10:04:53.997Z,49.82
2018-05-27T10:05:54.074Z,49.34
2018-05-27T10:06:53.988Z,49.24
2018-05-27T10:07:54.995Z,49.76
2018-05-27T10:08:53.935Z,48.58
2018-05-27T10:09:54.009Z,46.06
2018-05-27T10:10:53.906Z,46.15
2018-05-27T10:11:53.927Z,46.62
2018-05-27T10:12:53.896Z,47.20
2018-05-27T10:13:54.939Z,47.59
2018-05-27T10:14:53.790Z,48.75
2018-05-27T10:15:54.840Z,50.02
2018-05-27T10:16:53.791Z,49.76
2018-05-27T10:17:54.871Z,48.88
2018-05-27T10:18:53.785Z,47.52
2018-05-27T10:20:00.625Z,47.13
2018-05-27T10:20:53.683Z,47.42
2018-05-27T10:21:53.753Z,47.23
2018-05-27T10:22:53.691Z,47.03
2018-05-27T10:23:54.706Z,48.37
2018-05-27T10:24:53.612Z,49.71
2018-05-27T10:25:54.745Z,49.41
2018-05-27T10:26:53.585Z,49.99
2018-05-27T10:27:55.639Z,49.41
2018-05-27T10:28:53.529Z,49.51
2018-05-27T10:29:53.601Z,49.32
2018-05-27T10:30:53.563Z,48.83
2018-05-27T10:31:53.511Z,49.73
2018-05-27T10:32:53.502Z,47.20
2018-05-27T10:33:54.574Z,47.69
2018-05-27T10:34:53.419Z,47.40
2018-05-27T10:35:53.427Z,47.69
2018-05-27T10:36:53.375Z,47.42
2018-05-27T10:37:53.449Z,47.01
2018-05-27T10:38:53.347Z,47.30
2018-05-27T10:39:53.385Z,48.08
2018-05-27T10:40:53.300Z,47.01
2018-05-27T10:41:53.396Z,46.52
2018-05-27T10:42:53.275Z,45.65
2018-05-27T10:43:54.325Z,46.64
2018-05-27T10:44:53.221Z,47.13
2018-05-27T10:45:53.298Z,46.45
2018-05-27T10:46:53.180Z,47.91
2018-05-27T10:47:54.255Z,45.79
2018-05-27T10:48:53.149Z,45.01
2018-05-27T10:49:53.208Z,45.04
2018-05-27T10:50:53.106Z,44.26
2018-05-27T10:51:53.121Z,44.04
2018-05-27T10:52:53.079Z,44.89
2018-05-27T10:53:53.181Z,44.99
2018-05-27T10:54:53.040Z,46.55
2018-05-27T10:55:53.047Z,46.35
2018-05-27T10:56:53.000Z,46.45
2018-05-27T10:57:57.566Z,46.33
2018-05-27T10:58:52.974Z,46.31
2018-05-27T10:59:52.998Z,47.08
2018-05-27T11:00:52.910Z,47.08
2018-05-27T11:01:53.946Z,46.89
2018-05-27T11:02:52.887Z,45.24
2018-05-27T11:03:52.982Z,45.43
2018-05-27T11:04:52.843Z,46.52
2018-05-27T11:05:53.848Z,45.84
2018-05-27T11:06:52.804Z,45.57
2018-05-27T11:07:58.565Z,45.18
2018-05-27T11:08:52.813Z,44.43
2018-05-27T11:09:54.783Z,44.14
2018-05-27T11:10:52.719Z,44.84
2018-05-27T11:11:53.775Z,45.04
2018-05-27T11:12:52.674Z,43.58
2018-05-27T11:13:52.768Z,41.73
2018-05-27T11:14:52.684Z,42.31
2018-05-27T11:15:52.670Z,42.49
2018-05-27T11:16:52.600Z,43.26
2018-05-27T11:17:52.682Z,43.58
2018-05-27T11:18:52.601Z,44.14
2018-05-27T11:19:52.595Z,43.48
2018-05-27T11:20:52.543Z,44.45
2018-05-27T11:21:53.531Z,43.96
2018-05-27T11:22:52.486Z,43.70
2018-05-27T11:23:53.535Z,43.11
2018-05-27T11:24:52.466Z,42.63
2018-05-27T11:25:57.039Z,42.25
2018-05-27T11:26:52.413Z,42.45
2018-05-27T11:27:59.108Z,42.96
2018-05-27T11:28:52.486Z,42.18
2018-05-27T11:30:04.005Z,42.76
2018-05-27T11:30:52.336Z,42.30
2018-05-27T11:31:57.083Z,42.80
2018-05-27T11:32:52.320Z,40.68
2018-05-27T11:33:52.384Z,39.37
2018-05-27T11:34:52.305Z,40.42
2018-05-27T11:35:54.345Z,41.48
2018-05-27T11:36:52.328Z,40.52
2018-05-27T11:37:59.141Z,41.60
2018-05-27T11:38:52.244Z,40.91
2018-05-27T11:39:52.216Z,40.52
2018-05-27T11:40:52.168Z,40.83
2018-05-27T11:42:03.068Z,41.71
2018-05-27T11:42:52.116Z,40.45
2018-05-27T11:43:53.169Z,39.10
2018-05-27T11:44:52.085Z,38.63
2018-05-27T11:45:52.153Z,39.41
2018-05-27T11:46:52.037Z,39.33
2018-05-27T11:47:53.071Z,38.94
2018-05-27T11:48:51.997Z,38.87
2018-05-27T11:49:52.090Z,37.60
2018-05-27T11:50:51.983Z,37.09
2018-05-27T11:52:03.584Z,37.46
2018-05-27T11:52:51.958Z,37.83
2018-05-27T11:53:57.533Z,38.79
2018-05-27T11:54:51.894Z,39.18
2018-05-27T11:55:53.978Z,40.81
2018-05-27T11:56:51.855Z,40.89
2018-05-27T11:57:51.936Z,40.89
2018-05-27T11:58:51.834Z,40.70
2018-05-27T11:59:52.861Z,42.04
2018-05-27T12:00:51.794Z,41.67
2018-05-27T12:01:52.894Z,41.86
2018-05-27T12:02:51.731Z,41.69
2018-05-27T12:03:51.780Z,40.93
2018-05-27T12:04:51.724Z,40.17
2018-05-27T12:05:53.751Z,38.82
2018-05-27T12:06:51.662Z,38.06
2018-05-27T12:07:52.714Z,36.60
2018-05-27T12:08:51.617Z,37.09
2018-05-27T12:09:51.695Z,37.57
2018-05-27T12:10:51.607Z,38.82
2018-05-27T12:12:04.632Z,40.08
2018-05-27T12:12:51.557Z,40.37
2018-05-27T12:13:52.676Z,38.30
2018-05-27T12:14:51.516Z,39.29
2018-05-27T12:15:56.074Z,39.49
2018-05-27T12:16:51.460Z,38.92
2018-05-27T12:17:51.554Z,38.84
2018-05-27T12:18:51.424Z,38.06
2018-05-27T12:19:51.458Z,37.79
2018-05-27T12:20:51.424Z,37.21
2018-05-27T12:21:51.524Z,36.11
2018-05-27T12:22:51.371Z,37.55
2018-05-27T12:23:51.362Z,37.77
2018-05-27T12:24:51.325Z,37.85
2018-05-27T12:25:51.388Z,37.45
2018-05-27T12:26:51.296Z,38.69
2018-05-27T12:27:51.317Z,38.61
2018-05-27T12:28:51.261Z,38.79
2018-05-27T12:29:51.386Z,38.79
2018-05-27T12:30:51.205Z,39.57
2018-05-27T12:31:51.253Z,39.28
2018-05-27T12:32:51.186Z,39.94
2018-05-27T12:33:51.263Z,39.55
2018-05-27T12:34:51.134Z,40.83
2018-05-27T12:35:51.176Z,39.96
2018-05-27T12:36:51.113Z,39.47
2018-05-27T12:37:51.148Z,40.16
2018-05-27T12:38:51.052Z,39.57
2018-05-27T12:39:51.059Z,39.20
2018-05-27T12:40:51.024Z,38.90
2018-05-27T12:41:51.077Z,38.61
2018-05-27T12:42:51.066Z,38.02
2018-05-27T12:43:52.014Z,37.54
2018-05-27T12:44:50.949Z,37.43
2018-05-27T12:45:55.605Z,38.42
2018-05-27T12:46:50.912Z,38.89
2018-05-27T12:47:50.913Z,38.81
2018-05-27T12:48:50.879Z,37.54
2018-05-27T12:49:50.947Z,36.78
2018-05-27T12:50:50.878Z,35.02
2018-05-27T12:51:50.848Z,35.78